Time;durP1;ratioP1;P1;durP2;ratioP2;P2;SDS_P1;SDS_P2;PMS_P1;PMS_P2;Temp;Humidity;BMP_temperature;BMP_pressure;BME280_temperature;BME280_humidity;BME280_pressure;Samples;Min_cycle;Max_cycle;Signal;HPM_P1;HPM_P2
2023/08/31 00:00:36;;;;;;;5.43;2.30;;;10.70;99.90;;;;;;5156083;27;20042;-72
2023/08/31 00:03:02;;;;;;;3.70;2.30;;;10.70;99.90;;;;;;5156526;27;20047;-72
2023/08/31 00:05:30;;;;;;;3.42;2.22;;;10.60;99.90;;;;;;5154875;27;20074;-72
2023/08/31 00:07:56;;;;;;;3.97;2.33;;;10.60;99.90;;;;;;5156308;27;20055;-72
2023/08/31 00:10:22;;;;;;;4.35;2.28;;;10.50;99.90;;;;;;5156178;27;20381;-73
2023/08/31 00:12:49;;;;;;;3.75;2.20;;;10.40;99.90;;;;;;5155663;27;20482;-72
2023/08/31 00:15:15;;;;;;;5.50;2.40;;;10.30;99.90;;;;;;5155838;27;20045;-73
2023/08/31 00:17:40;;;;;;;4.97;2.42;;;10.30;99.90;;;;;;5156131;27;20043;-73
2023/08/31 00:20:11;;;;;;;3.83;2.13;;;10.30;99.90;;;;;;5155775;27;20050;-73
2023/08/31 00:22:37;;;;;;;4.25;2.53;;;10.30;99.90;;;;;;5155702;27;20395;-73
2023/08/31 00:25:05;;;;;;;3.75;2.42;;;10.30;99.90;;;;;;5137481;27;20481;-72
2023/08/31 00:27:31;;;;;;;6.63;2.03;;;10.40;99.90;;;;;;5137529;27;20046;-73
2023/08/31 00:29:58;;;;;;;3.03;1.80;;;10.40;99.90;;;;;;5155178;27;20053;-72
2023/08/31 00:32:23;;;;;;;6.78;2.15;;;10.30;99.90;;;;;;5155746;27;20047;-72
2023/08/31 00:34:50;;;;;;;3.58;1.92;;;10.40;99.90;;;;;;5155799;27;20474;-73
2023/08/31 00:37:16;;;;;;;4.88;2.40;;;10.40;99.90;;;;;;5155185;27;20498;-73
2023/08/31 00:39:43;;;;;;;5.03;2.35;;;10.40;99.90;;;;;;5155361;27;20058;-73
2023/08/31 00:42:09;;;;;;;4.40;2.20;;;10.50;99.90;;;;;;5155557;27;20110;-74
2023/08/31 00:44:34;;;;;;;3.17;2.00;;;10.50;99.90;;;;;;5144371;27;20047;-74
2023/08/31 00:47:02;;;;;;;4.53;2.05;;;10.50;99.90;;;;;;5134631;27;20043;-74
2023/08/31 00:49:28;;;;;;;3.75;2.30;;;10.50;99.90;;;;;;5135003;27;20050;-74
2023/08/31 00:51:56;;;;;;;4.38;2.20;;;10.50;99.90;;;;;;5134420;27;20046;-73
2023/08/31 00:54:22;;;;;;;4.40;2.30;;;10.50;99.90;;;;;;5134319;27;20379;-73
2023/08/31 00:56:55;;;;;;;3.83;2.08;;;10.50;99.90;;;;;;5134517;27;20050;-73
2023/08/31 00:59:21;;;;;;;5.38;2.38;;;10.60;99.90;;;;;;5134706;27;20133;-74
2023/08/31 01:01:59;;;;;;;4.53;2.50;;;10.70;99.90;;;;;;5134620;27;20119;-73
2023/08/31 01:04:41;;;;;;;4.97;2.50;;;10.70;99.90;;;;;;5134697;27;20047;-74
2023/08/31 01:07:36;;;;;;;3.85;1.90;;;10.80;99.90;;;;;;5134087;27;20136;-73
2023/08/31 01:10:30;;;;;;;4.80;2.03;;;10.80;99.90;;;;;;5098789;27;20062;-74
2023/08/31 01:13:03;;;;;;;6.40;2.20;;;10.70;99.90;;;;;;5134002;27;20407;-73
2023/08/31 01:15:31;;;;;;;2.75;1.80;;;10.70;99.90;;;;;;5134478;27;20043;-73
2023/08/31 01:18:00;;;;;;;3.20;2.08;;;10.60;99.90;;;;;;5116521;27;20191;-73
2023/08/31 01:20:35;;;;;;;4.47;2.25;;;10.60;99.90;;;;;;5135099;27;20043;-73
2023/08/31 01:23:10;;;;;;;3.30;2.30;;;10.50;99.90;;;;;;5134589;28;20047;-74
2023/08/31 01:25:37;;;;;;;6.10;2.05;;;10.50;99.90;;;;;;5134236;28;20050;-74
2023/08/31 01:28:03;;;;;;;5.28;2.22;;;10.50;99.90;;;;;;5134347;28;20047;-74
2023/08/31 01:30:32;;;;;;;4.40;2.00;;;10.50;99.90;;;;;;5133890;28;20046;-75
2023/08/31 01:32:58;;;;;;;2.80;1.98;;;10.40;99.90;;;;;;5133880;28;20135;-74
2023/08/31 01:35:25;;;;;;;3.88;1.95;;;10.40;99.90;;;;;;5134462;28;20365;-74
2023/08/31 01:37:58;;;;;;;2.60;1.85;;;10.40;99.90;;;;;;5121825;27;20377;-74
2023/08/31 01:40:27;;;;;;;3.08;2.13;;;10.40;99.90;;;;;;5155367;27;20043;-75
2023/08/31 01:42:53;;;;;;;3.35;2.05;;;10.30;99.90;;;;;;5154438;27;20051;-74
2023/08/31 01:45:22;;;;;;;5.40;1.88;;;10.30;99.90;;;;;;5137609;27;20059;-73
2023/08/31 01:47:48;;;;;;;5.20;2.20;;;10.20;99.90;;;;;;5115942;28;20096;-74
2023/08/31 01:50:13;;;;;;;3.10;2.22;;;10.20;99.90;;;;;;5134026;28;20035;-73
2023/08/31 01:52:39;;;;;;;4.30;2.40;;;10.20;99.90;;;;;;5134045;28;20053;-74
2023/08/31 01:55:06;;;;;;;7.43;2.22;;;10.20;99.90;;;;;;5134230;28;20491;-74
2023/08/31 01:57:32;;;;;;;4.18;2.20;;;10.30;99.90;;;;;;5134007;28;20047;-73
2023/08/31 01:59:58;;;;;;;4.15;2.17;;;10.30;99.90;;;;;;5133915;28;20054;-73
2023/08/31 02:02:24;;;;;;;3.90;2.47;;;10.40;99.90;;;;;;5134011;28;20043;-74
2023/08/31 02:04:53;;;;;;;5.78;2.55;;;10.40;99.90;;;;;;5134026;28;20131;-73
2023/08/31 02:07:19;;;;;;;5.80;2.88;;;10.40;99.90;;;;;;5133603;28;20043;-74
2023/08/31 02:09:44;;;;;;;3.88;2.42;;;10.40;99.90;;;;;;5133510;28;20084;-72
2023/08/31 02:12:10;;;;;;;5.57;2.70;;;10.50;99.90;;;;;;5133595;28;20099;-72
2023/08/31 02:14:36;;;;;;;5.22;2.60;;;10.50;99.90;;;;;;5133479;28;20476;-74
2023/08/31 02:17:02;;;;;;;5.25;2.78;;;10.50;99.90;;;;;;5133564;28;20612;-73
2023/08/31 02:19:28;;;;;;;4.15;2.47;;;10.50;99.90;;;;;;5133762;28;20091;-72
2023/08/31 02:21:53;;;;;;;7.05;2.70;;;10.50;99.90;;;;;;5133854;28;20096;-72
2023/08/31 02:24:20;;;;;;;5.82;2.88;;;10.50;99.90;;;;;;5134163;28;20469;-73
2023/08/31 02:26:45;;;;;;;5.40;3.00;;;10.50;99.90;;;;;;5115945;28;20059;-73
2023/08/31 02:29:11;;;;;;;6.57;3.22;;;10.50;99.90;;;;;;5135980;27;20130;-72
2023/08/31 02:31:38;;;;;;;5.20;3.40;;;10.50;99.90;;;;;;5119145;27;20103;-73
2023/08/31 02:34:04;;;;;;;5.90;3.22;;;10.50;99.90;;;;;;5137259;27;20400;-72
2023/08/31 02:36:29;;;;;;;5.00;3.13;;;10.60;99.90;;;;;;5137353;27;20081;-72
2023/08/31 02:38:56;;;;;;;6.53;3.03;;;10.60;99.90;;;;;;5137831;27;20079;-72
2023/08/31 02:41:22;;;;;;;6.38;3.72;;;10.60;99.90;;;;;;5137418;27;20392;-72
2023/08/31 02:43:51;;;;;;;4.00;3.10;;;10.60;99.90;;;;;;5140987;27;20047;-72
2023/08/31 02:46:17;;;;;;;5.47;3.60;;;10.70;99.90;;;;;;5157511;27;20047;-72
2023/08/31 02:48:44;;;;;;;7.28;3.38;;;10.80;99.90;;;;;;5157465;27;20042;-73
2023/08/31 02:51:09;;;;;;;5.60;3.53;;;10.80;99.90;;;;;;5157745;27;20042;-73
2023/08/31 02:53:35;;;;;;;5.07;3.63;;;10.90;99.90;;;;;;5157765;27;20509;-72
2023/08/31 02:56:01;;;;;;;4.88;3.13;;;10.90;99.90;;;;;;5157869;27;20058;-73
2023/08/31 02:58:27;;;;;;;5.57;3.55;;;10.90;99.90;;;;;;5139302;27;20054;-72
2023/08/31 03:00:53;;;;;;;6.53;3.55;;;10.90;99.90;;;;;;5157567;27;20386;-72
2023/08/31 03:03:19;;;;;;;6.93;3.72;;;10.90;99.90;;;;;;5157438;27;20064;-73
2023/08/31 03:05:45;;;;;;;8.23;3.80;;;10.90;99.90;;;;;;5139523;27;20186;-73
2023/08/31 03:08:11;;;;;;;6.05;3.70;;;10.90;99.90;;;;;;5157311;27;20498;-73
2023/08/31 03:10:38;;;;;;;5.95;4.15;;;10.80;99.90;;;;;;5157463;27;20052;-73
2023/08/31 03:13:04;;;;;;;6.68;3.85;;;10.70;99.90;;;;;;5156945;27;20046;-73
2023/08/31 03:15:32;;;;;;;6.75;4.03;;;10.70;99.90;;;;;;5157565;27;20050;-73
2023/08/31 03:17:57;;;;;;;6.25;3.70;;;10.60;99.90;;;;;;5157465;27;20125;-73
2023/08/31 03:20:23;;;;;;;8.27;4.38;;;10.60;99.90;;;;;;5157329;27;20085;-73
2023/08/31 03:22:48;;;;;;;6.50;4.03;;;10.60;99.90;;;;;;5156997;27;20390;-73
2023/08/31 03:25:14;;;;;;;6.78;4.32;;;10.60;99.90;;;;;;5156574;27;20049;-73
2023/08/31 03:27:40;;;;;;;5.68;3.88;;;10.50;99.90;;;;;;5157018;27;20050;-72
2023/08/31 03:30:06;;;;;;;6.38;4.15;;;10.50;99.90;;;;;;5157216;27;20042;-72
2023/08/31 03:32:32;;;;;;;5.45;4.05;;;10.40;99.90;;;;;;5157029;27;20046;-72
2023/08/31 03:34:58;;;;;;;6.68;4.40;;;10.50;99.90;;;;;;5157145;27;20042;-72
2023/08/31 03:37:23;;;;;;;6.90;4.38;;;10.40;99.90;;;;;;5155061;27;20050;-72
2023/08/31 03:39:49;;;;;;;5.50;3.80;;;10.40;99.90;;;;;;5134872;27;20392;-72
2023/08/31 03:42:15;;;;;;;5.43;4.10;;;10.40;99.90;;;;;;5136176;27;20207;-72
2023/08/31 03:44:40;;;;;;;6.85;4.22;;;10.40;99.90;;;;;;5147106;27;20082;-72
2023/08/31 03:47:06;;;;;;;5.45;4.03;;;10.40;99.90;;;;;;5156893;27;20047;-73
2023/08/31 03:49:33;;;;;;;6.05;3.63;;;10.40;99.90;;;;;;5156694;27;20053;-73
2023/08/31 03:51:59;;;;;;;4.65;3.80;;;10.40;99.90;;;;;;5157179;27;20043;-72
2023/08/31 03:54:24;;;;;;;7.03;4.20;;;10.40;99.90;;;;;;5156463;27;20043;-73
2023/08/31 03:56:50;;;;;;;6.22;4.32;;;10.40;99.90;;;;;;5156423;27;20057;-73
2023/08/31 03:59:16;;;;;;;6.10;4.60;;;10.50;99.90;;;;;;5156593;27;20042;-72
2023/08/31 04:01:42;;;;;;;7.97;4.07;;;10.50;99.90;;;;;;5156155;27;20449;-73
2023/08/31 04:04:08;;;;;;;5.65;4.00;;;10.60;99.90;;;;;;5156050;27;20046;-73
2023/08/31 04:06:34;;;;;;;5.47;4.10;;;10.60;99.90;;;;;;5156268;27;20046;-73
2023/08/31 04:08:59;;;;;;;6.18;4.20;;;10.60;99.90;;;;;;5156209;27;20137;-72
2023/08/31 04:11:26;;;;;;;6.00;3.95;;;10.70;99.90;;;;;;5156243;27;20107;-71
2023/08/31 04:13:52;;;;;;;5.05;4.03;;;10.70;99.90;;;;;;5137707;27;20115;-72
2023/08/31 04:16:18;;;;;;;4.90;4.35;;;10.70;99.90;;;;;;5156142;27;20131;-72
2023/08/31 04:18:45;;;;;;;6.03;4.28;;;10.70;99.90;;;;;;5156282;27;20042;-72
2023/08/31 04:21:10;;;;;;;5.82;4.40;;;10.70;99.90;;;;;;5155969;27;20039;-72
2023/08/31 04:23:36;;;;;;;6.03;4.47;;;10.70;99.90;;;;;;5155982;27;20564;-72
2023/08/31 04:26:13;;;;;;;5.30;4.38;;;10.60;99.90;;;;;;5155988;27;20371;-72
2023/08/31 04:28:41;;;;;;;5.65;4.07;;;10.60;99.90;;;;;;5155899;27;20050;-73
2023/08/31 04:31:07;;;;;;;5.40;4.38;;;10.60;99.90;;;;;;5137499;27;20102;-72
2023/08/31 04:33:38;;;;;;;5.88;4.25;;;10.60;99.90;;;;;;5155627;27;20038;-72
2023/08/31 04:36:06;;;;;;;6.13;4.20;;;10.60;99.90;;;;;;5155449;27;20046;-71
2023/08/31 04:38:33;;;;;;;5.18;4.28;;;10.70;99.90;;;;;;5144101;27;20042;-72
2023/08/31 04:41:00;;;;;;;7.97;4.40;;;10.70;99.90;;;;;;5134444;27;20135;-72
2023/08/31 04:43:25;;;;;;;5.38;4.60;;;10.80;99.90;;;;;;5134990;27;20063;-73
2023/08/31 04:45:52;;;;;;;5.57;4.28;;;10.80;99.90;;;;;;5154902;27;20133;-73
2023/08/31 04:48:17;;;;;;;5.63;4.15;;;10.80;99.90;;;;;;5155537;27;20043;-73
2023/08/31 04:50:43;;;;;;;6.82;4.60;;;10.70;99.90;;;;;;5154980;27;20099;-73
2023/08/31 04:53:09;;;;;;;4.97;3.70;;;10.70;99.90;;;;;;5155245;27;20042;-72
2023/08/31 04:55:34;;;;;;;6.03;4.13;;;10.70;99.90;;;;;;5155192;27;20093;-72
2023/08/31 04:58:00;;;;;;;5.25;4.40;;;10.70;99.90;;;;;;5155357;27;20072;-73
2023/08/31 05:00:26;;;;;;;5.15;4.20;;;10.70;99.90;;;;;;5155274;27;20035;-72
2023/08/31 05:02:51;;;;;;;4.82;3.50;;;10.70;99.90;;;;;;5155401;27;20042;-72
2023/08/31 05:05:18;;;;;;;4.85;3.75;;;10.70;99.90;;;;;;5155230;27;20099;-73
2023/08/31 05:07:44;;;;;;;5.50;4.18;;;10.70;99.90;;;;;;5137062;27;20050;-73
2023/08/31 05:10:10;;;;;;;4.57;3.50;;;10.70;99.90;;;;;;5154849;27;20050;-72
2023/08/31 05:12:36;;;;;;;4.90;3.70;;;10.70;99.90;;;;;;5136888;27;20498;-73
2023/08/31 05:15:02;;;;;;;5.32;3.65;;;10.70;99.90;;;;;;5154798;27;20043;-73
2023/08/31 05:17:28;;;;;;;5.75;3.70;;;10.80;99.90;;;;;;5154796;27;20043;-74
2023/08/31 05:19:54;;;;;;;5.97;3.83;;;10.80;99.90;;;;;;5154982;27;20090;-73
2023/08/31 05:22:19;;;;;;;4.53;3.63;;;10.80;99.90;;;;;;5154957;27;20122;-73
2023/08/31 05:24:45;;;;;;;4.22;3.35;;;10.80;99.90;;;;;;5155303;27;20057;-73
2023/08/31 05:27:11;;;;;;;6.47;3.50;;;10.80;99.90;;;;;;5136808;27;20493;-73
2023/08/31 05:29:36;;;;;;;4.78;3.25;;;10.80;99.90;;;;;;5136523;27;20452;-67
2023/08/31 05:32:02;;;;;;;4.72;3.63;;;10.80;99.90;;;;;;5135939;27;20061;-65
2023/08/31 05:34:28;;;;;;;4.60;3.00;;;10.80;99.90;;;;;;5155010;27;20125;-66
2023/08/31 05:36:54;;;;;;;5.63;3.80;;;10.80;99.90;;;;;;5155094;27;20567;-66
2023/08/31 05:39:19;;;;;;;5.20;3.33;;;10.80;99.90;;;;;;5136722;27;20126;-65
2023/08/31 05:41:45;;;;;;;4.90;3.83;;;10.80;99.90;;;;;;5133813;28;20035;-66
2023/08/31 05:44:11;;;;;;;4.85;3.55;;;10.90;99.90;;;;;;5140943;27;20107;-67
2023/08/31 05:46:38;;;;;;;5.05;3.47;;;11.00;99.90;;;;;;5154923;27;20096;-66
2023/08/31 05:49:04;;;;;;;5.25;3.72;;;11.00;99.90;;;;;;5154897;27;20126;-66
2023/08/31 05:51:29;;;;;;;3.75;2.88;;;11.10;99.90;;;;;;5154722;27;20123;-66
2023/08/31 05:53:55;;;;;;;5.53;3.85;;;11.10;99.90;;;;;;5136116;27;20047;-66
2023/08/31 05:56:21;;;;;;;4.18;3.55;;;11.20;99.90;;;;;;5153843;27;20042;-66
2023/08/31 05:58:47;;;;;;;3.85;2.80;;;11.30;99.90;;;;;;5136219;27;20038;-66
2023/08/31 06:01:13;;;;;;;6.03;3.53;;;11.40;99.90;;;;;;5154604;27;20064;-66
2023/08/31 06:03:38;;;;;;;5.20;3.40;;;11.50;99.90;;;;;;5156093;27;20047;-66
2023/08/31 06:06:04;;;;;;;4.25;3.60;;;11.50;99.90;;;;;;5158580;27;20039;-66
2023/08/31 06:08:30;;;;;;;5.40;3.45;;;11.50;99.90;;;;;;5158566;27;20038;-66
2023/08/31 06:10:56;;;;;;;5.15;3.67;;;11.60;99.90;;;;;;5158471;27;20121;-66
2023/08/31 06:13:21;;;;;;;4.80;3.53;;;11.70;99.90;;;;;;5139939;27;20054;-66
2023/08/31 06:15:47;;;;;;;4.47;3.40;;;11.80;99.90;;;;;;5158626;27;20049;-66
2023/08/31 06:18:13;;;;;;;4.68;3.10;;;11.80;99.90;;;;;;5158339;27;20478;-66
2023/08/31 06:20:39;;;;;;;5.25;3.60;;;11.90;99.90;;;;;;5158442;27;20091;-66
2023/08/31 06:23:05;;;;;;;4.45;3.50;;;11.90;99.90;;;;;;5139328;27;20146;-66
2023/08/31 06:25:31;;;;;;;5.50;3.67;;;12.00;99.90;;;;;;5148644;27;20039;-66
2023/08/31 06:27:58;;;;;;;4.32;2.85;;;12.10;99.90;;;;;;5156717;27;20047;-65
2023/08/31 06:30:24;;;;;;;4.13;3.38;;;12.10;99.90;;;;;;5136820;27;20130;-66
2023/08/31 06:32:50;;;;;;;4.65;3.63;;;12.10;99.90;;;;;;5138480;27;20414;-66
2023/08/31 06:35:16;;;;;;;5.28;3.40;;;12.20;99.90;;;;;;5157390;27;20047;-66
2023/08/31 06:37:42;;;;;;;5.07;3.20;;;12.20;99.90;;;;;;5152977;27;20088;-67
2023/08/31 06:40:09;;;;;;;4.60;3.03;;;12.30;99.90;;;;;;5138248;27;20457;-66
2023/08/31 06:42:38;;;;;;;5.20;3.10;;;12.30;99.90;;;;;;5157376;27;20051;-66
2023/08/31 06:45:05;;;;;;;3.97;2.80;;;12.40;99.90;;;;;;5151268;27;20050;-65
2023/08/31 06:47:33;;;;;;;4.70;3.10;;;12.40;99.90;;;;;;5157711;27;20134;-66
2023/08/31 06:49:59;;;;;;;7.32;2.58;;;12.50;99.90;;;;;;5157442;27;20486;-66
2023/08/31 06:52:25;;;;;;;4.65;3.20;;;12.60;99.90;;;;;;5157161;27;20049;-66
2023/08/31 06:54:55;;;;;;;3.47;2.65;;;12.70;99.90;;;;;;5157719;27;20051;-66
2023/08/31 06:57:22;;;;;;;3.60;2.40;;;12.70;99.90;;;;;;5157771;27;20092;-66
2023/08/31 06:59:48;;;;;;;4.82;2.58;;;12.80;99.90;;;;;;5157198;27;20049;-67
2023/08/31 07:02:14;;;;;;;4.10;2.70;;;12.90;99.90;;;;;;5156885;27;20038;-66
2023/08/31 07:04:40;;;;;;;6.78;3.10;;;13.00;99.90;;;;;;5157445;27;20053;-65
2023/08/31 07:07:06;;;;;;;5.10;2.80;;;13.10;99.90;;;;;;5157009;27;20154;-66
2023/08/31 07:09:31;;;;;;;5.25;3.60;;;13.20;99.90;;;;;;5157473;27;20159;-66
2023/08/31 07:11:58;;;;;;;4.60;3.20;;;13.20;99.90;;;;;;5156660;27;20526;-66
2023/08/31 07:14:24;;;;;;;4.75;2.97;;;13.30;99.90;;;;;;5155813;27;20394;-66
2023/08/31 07:16:50;;;;;;;5.50;2.50;;;13.30;99.90;;;;;;5138711;27;20047;-66
2023/08/31 07:19:16;;;;;;;4.75;2.70;;;13.40;99.90;;;;;;5138332;27;20131;-66
2023/08/31 07:21:41;;;;;;;4.28;2.53;;;13.50;99.90;;;;;;5156699;27;20078;-65
2023/08/31 07:24:07;;;;;;;4.53;2.60;;;13.50;99.90;;;;;;5121278;27;20045;-65
2023/08/31 07:26:34;;;;;;;4.75;2.42;;;13.60;99.90;;;;;;5156672;27;20494;-66
2023/08/31 07:29:04;;;;;;;4.38;2.55;;;13.70;99.90;;;;;;5155881;27;20491;-65
2023/08/31 07:31:30;;;;;;;5.10;3.08;;;13.80;99.90;;;;;;5156400;27;20155;-66
2023/08/31 07:33:56;;;;;;;5.75;2.40;;;13.90;99.90;;;;;;5156263;27;20050;-66
2023/08/31 07:36:22;;;;;;;4.32;2.10;;;14.10;99.90;;;;;;5155988;27;20039;-66
2023/08/31 07:38:47;;;;;;;4.57;2.47;;;14.20;99.90;;;;;;5142224;27;20122;-66
2023/08/31 07:41:13;;;;;;;3.60;2.10;;;14.20;99.90;;;;;;5135923;27;20081;-66
2023/08/31 07:43:39;;;;;;;6.18;2.63;;;14.20;99.90;;;;;;5137353;27;20410;-66
2023/08/31 07:46:04;;;;;;;4.95;2.55;;;14.30;99.90;;;;;;5156563;27;20189;-66
2023/08/31 07:48:30;;;;;;;3.58;2.10;;;14.40;99.90;;;;;;5156400;27;20043;-66
2023/08/31 07:50:56;;;;;;;3.25;2.10;;;14.40;99.90;;;;;;5137477;27;20050;-66
2023/08/31 07:53:22;;;;;;;3.58;1.80;;;14.50;99.90;;;;;;5156319;27;20097;-66
2023/08/31 07:55:56;;;;;;;2.40;1.50;;;14.40;99.90;;;;;;5156090;27;20046;-66
2023/08/31 07:58:22;;;;;;;4.90;2.13;;;14.50;99.90;;;;;;5155860;27;20057;-66
2023/08/31 08:00:48;;;;;;;4.32;2.00;;;14.50;99.90;;;;;;5156073;27;20035;-67
2023/08/31 08:03:14;;;;;;;5.30;2.05;;;14.60;99.90;;;;;;5156323;27;20074;-66
2023/08/31 08:05:41;;;;;;;4.40;1.63;;;14.70;99.90;;;;;;5155686;27;20093;-67
2023/08/31 08:08:07;;;;;;;6.00;1.88;;;14.80;99.90;;;;;;5156087;27;20103;-66
2023/08/31 08:10:32;;;;;;;3.13;1.50;;;14.80;99.90;;;;;;5156105;27;20046;-66
2023/08/31 08:12:58;;;;;;;3.97;1.60;;;14.90;99.90;;;;;;5155774;27;20443;-67
2023/08/31 08:15:25;;;;;;;3.35;1.55;;;15.00;99.90;;;;;;5155639;27;20050;-66
2023/08/31 08:17:51;;;;;;;2.58;1.60;;;15.20;99.90;;;;;;5155434;27;20047;-66
2023/08/31 08:20:16;;;;;;;2.97;1.30;;;15.30;99.90;;;;;;5155674;27;20483;-67
2023/08/31 08:22:43;;;;;;;3.83;1.05;;;15.30;99.90;;;;;;5154044;27;20043;-67
2023/08/31 08:25:09;;;;;;;2.38;1.30;;;15.50;99.90;;;;;;5155612;27;20098;-67
2023/08/31 08:27:36;;;;;;;4.30;1.45;;;15.60;99.90;;;;;;5136014;27;20034;-67
2023/08/31 08:30:02;;;;;;;2.60;1.10;;;15.60;99.90;;;;;;5136590;27;20050;-66
2023/08/31 08:32:28;;;;;;;4.43;1.10;;;15.50;99.90;;;;;;5152294;27;20035;-65
2023/08/31 08:34:54;;;;;;;3.03;1.30;;;15.50;99.90;;;;;;5155065;27;20057;-66
2023/08/31 08:37:20;;;;;;;4.10;1.45;;;15.70;99.90;;;;;;5155268;27;20046;-66
2023/08/31 08:39:50;;;;;;;4.65;1.27;;;15.90;99.90;;;;;;5150141;27;20075;-67
2023/08/31 08:42:19;;;;;;;2.97;1.10;;;15.90;99.90;;;;;;5126454;27;20051;-66
2023/08/31 08:44:45;;;;;;;2.83;0.93;;;15.70;99.90;;;;;;5138063;27;20101;-66
2023/08/31 08:47:12;;;;;;;2.30;1.13;;;15.60;99.90;;;;;;5132542;27;20491;-66
2023/08/31 08:49:38;;;;;;;3.05;1.15;;;15.60;99.90;;;;;;5136387;27;20441;-67
2023/08/31 08:52:04;;;;;;;2.90;1.15;;;15.70;99.90;;;;;;5132054;27;20076;-66
2023/08/31 08:54:30;;;;;;;2.53;1.33;;;15.80;99.90;;;;;;5116671;27;20502;-66
2023/08/31 08:56:57;;;;;;;2.33;1.30;;;15.80;99.90;;;;;;5132460;27;20051;-66
2023/08/31 08:59:24;;;;;;;2.05;1.10;;;15.80;99.90;;;;;;5142876;27;20406;-67
2023/08/31 09:01:50;;;;;;;2.17;1.10;;;15.90;99.90;;;;;;5132201;27;20050;-66
2023/08/31 09:04:15;;;;;;;2.17;1.10;;;16.10;99.90;;;;;;5131918;27;20059;-66
2023/08/31 09:06:41;;;;;;;2.00;0.95;;;16.30;99.90;;;;;;5131524;27;20042;-66
2023/08/31 09:09:11;;;;;;;3.42;0.93;;;16.50;99.90;;;;;;5132553;27;20073;-66
2023/08/31 09:11:36;;;;;;;1.63;0.80;;;16.60;99.90;;;;;;5132401;27;20063;-66
2023/08/31 09:14:16;;;;;;;1.10;0.70;;;16.80;99.90;;;;;;5131839;27;20111;-66
2023/08/31 09:16:48;;;;;;;1.90;0.85;;;17.00;99.90;;;;;;5132624;27;20047;-66
2023/08/31 09:19:24;;;;;;;2.10;0.82;;;17.00;99.90;;;;;;5137177;27;20074;-66
2023/08/31 09:21:51;;;;;;;1.73;0.70;;;16.70;99.90;;;;;;5131473;27;20400;-66
2023/08/31 09:24:19;;;;;;;2.35;0.80;;;16.40;99.90;;;;;;5097405;28;20077;-67
2023/08/31 09:26:48;;;;;;;1.85;0.50;;;16.10;99.90;;;;;;5131736;27;20122;-66
2023/08/31 09:29:14;;;;;;;0.90;0.45;;;15.90;99.90;;;;;;5131958;27;20407;-66
2023/08/31 09:31:44;;;;;;;3.38;0.50;;;15.60;99.90;;;;;;5113075;27;20050;-67
2023/08/31 09:34:10;;;;;;;1.20;0.40;;;15.10;99.90;;;;;;5114243;28;20047;-66
2023/08/31 09:36:36;;;;;;;1.10;0.40;;;14.40;99.90;;;;;;5131763;27;20073;-66
2023/08/31 09:39:02;;;;;;;0.98;0.60;;;14.00;99.90;;;;;;5136890;27;20039;-66
2023/08/31 09:41:28;;;;;;;1.38;0.55;;;13.70;99.90;;;;;;5136350;27;20369;-66
2023/08/31 09:43:54;;;;;;;1.58;0.68;;;13.60;99.90;;;;;;5135703;27;20441;-66
2023/08/31 09:46:21;;;;;;;1.42;0.60;;;13.60;99.90;;;;;;5135943;27;20100;-66
2023/08/31 09:48:48;;;;;;;1.73;0.60;;;13.90;99.90;;;;;;5136988;27;20043;-67
2023/08/31 09:51:20;;;;;;;1.67;0.50;;;14.30;99.90;;;;;;5124306;27;20046;-65
2023/08/31 09:53:49;;;;;;;3.65;0.70;;;14.50;99.90;;;;;;5136197;27;20111;-66
2023/08/31 09:56:20;;;;;;;1.55;0.55;;;14.50;99.90;;;;;;5117540;27;20055;-66
2023/08/31 09:58:46;;;;;;;2.25;0.60;;;14.50;99.90;;;;;;5136019;27;20042;-65
2023/08/31 10:01:12;;;;;;;1.33;0.73;;;14.60;99.90;;;;;;5135685;27;20066;-66
2023/08/31 10:03:38;;;;;;;1.08;0.50;;;14.70;99.90;;;;;;5136005;27;20476;-66
2023/08/31 10:06:04;;;;;;;1.63;0.77;;;14.90;99.90;;;;;;5135386;27;20036;-67
2023/08/31 10:08:31;;;;;;;2.83;0.70;;;15.00;99.90;;;;;;5136042;27;20043;-67
2023/08/31 10:11:03;;;;;;;3.25;0.90;;;15.20;99.90;;;;;;5135480;27;20456;-66
2023/08/31 10:13:36;;;;;;;1.83;0.70;;;15.40;99.90;;;;;;5135760;27;20043;-66
2023/08/31 10:16:04;;;;;;;1.33;0.70;;;15.50;99.90;;;;;;5135326;27;20103;-66
2023/08/31 10:18:31;;;;;;;1.48;0.80;;;15.70;99.90;;;;;;5117588;27;20054;-67
2023/08/31 10:20:57;;;;;;;1.95;0.70;;;15.90;99.90;;;;;;5135157;27;20035;-65
2023/08/31 10:23:23;;;;;;;1.75;0.63;;;16.00;99.90;;;;;;5135409;27;20051;-66
2023/08/31 10:25:53;;;;;;;1.95;0.82;;;16.10;99.90;;;;;;5135314;27;20043;-66
2023/08/31 10:28:23;;;;;;;1.77;0.77;;;16.00;99.90;;;;;;5135165;27;20096;-67
2023/08/31 10:31:03;;;;;;;1.10;0.70;;;16.00;99.90;;;;;;5135539;27;20043;-73
2023/08/31 10:33:34;;;;;;;1.60;0.60;;;16.10;99.90;;;;;;5135457;27;20039;-73
2023/08/31 10:36:00;;;;;;;1.63;0.60;;;16.20;99.90;;;;;;5136055;27;20479;-73
2023/08/31 10:38:31;;;;;;;1.60;0.60;;;16.40;99.90;;;;;;5135645;27;20035;-73
2023/08/31 10:41:06;;;;;;;1.27;0.60;;;16.40;99.90;;;;;;5134872;27;20518;-71
2023/08/31 10:43:50;;;;;;;1.15;0.60;;;16.50;99.90;;;;;;5137013;27;20135;-72
2023/08/31 10:46:28;;;;;;;1.38;0.43;;;16.90;99.90;;;;;;5117381;27;20053;-73
2023/08/31 10:49:09;;;;;;;2.13;0.68;;;17.40;99.90;;;;;;5117615;27;20068;-72
2023/08/31 10:51:36;;;;;;;2.65;0.60;;;17.70;99.90;;;;;;5141746;27;20043;-74
2023/08/31 10:54:18;;;;;;;1.48;0.57;;;17.60;99.90;;;;;;5135200;27;20039;-73
2023/08/31 10:57:00;;;;;;;1.02;0.50;;;17.30;99.90;;;;;;5134471;27;20513;-71
2023/08/31 10:59:40;;;;;;;0.60;0.30;;;17.10;99.90;;;;;;5134454;27;20095;-71
2023/08/31 11:02:06;;;;;;;1.55;0.60;;;17.10;99.90;;;;;;5134325;27;20126;-71
2023/08/31 11:04:52;;;;;;;1.70;0.60;;;17.00;99.90;;;;;;5144661;27;20074;-71
2023/08/31 11:07:19;;;;;;;1.55;0.40;;;17.10;99.90;;;;;;5124801;27;20069;-72
2023/08/31 11:09:46;;;;;;;1.85;0.50;;;17.10;99.90;;;;;;5137956;27;20066;-73
2023/08/31 11:12:13;;;;;;;1.65;0.50;;;17.00;99.90;;;;;;5121106;27;20043;-72
2023/08/31 11:14:39;;;;;;;2.17;0.50;;;16.70;99.90;;;;;;5134283;27;20118;-71
2023/08/31 11:17:05;;;;;;;1.90;0.77;;;16.20;99.90;;;;;;5134325;27;20122;-72
2023/08/31 11:19:32;;;;;;;2.70;0.70;;;15.50;99.90;;;;;;5134168;27;20387;-72
2023/08/31 11:22:00;;;;;;;1.30;0.60;;;14.80;99.90;;;;;;5134575;27;20039;-71
2023/08/31 11:24:26;;;;;;;1.98;0.77;;;14.40;99.90;;;;;;5134306;27;20054;-72
2023/08/31 11:26:53;;;;;;;1.38;0.77;;;14.40;99.90;;;;;;5115540;27;20487;-73
2023/08/31 11:29:18;;;;;;;1.80;0.63;;;14.60;99.90;;;;;;5116622;27;20058;-72
2023/08/31 11:31:44;;;;;;;1.95;1.00;;;14.90;99.90;;;;;;5133729;27;20043;-71
2023/08/31 11:34:17;;;;;;;2.88;0.90;;;15.10;99.90;;;;;;5133585;27;20176;-71
2023/08/31 11:36:45;;;;;;;2.17;0.80;;;15.40;99.90;;;;;;5133585;27;20100;-72
2023/08/31 11:39:14;;;;;;;2.30;0.90;;;15.70;99.90;;;;;;5133789;27;20087;-72
2023/08/31 11:41:42;;;;;;;2.13;0.95;;;16.00;99.90;;;;;;5115661;27;20040;-73
2023/08/31 11:44:12;;;;;;;1.33;0.60;;;16.30;99.90;;;;;;5140202;27;20107;-72
2023/08/31 11:46:40;;;;;;;2.78;0.90;;;16.60;99.90;;;;;;5134196;27;20070;-71
2023/08/31 11:49:06;;;;;;;2.45;1.02;;;16.90;99.90;;;;;;5133443;27;20499;-70
2023/08/31 11:51:34;;;;;;;1.75;0.80;;;16.80;99.90;;;;;;5134086;27;20047;-70
2023/08/31 11:54:02;;;;;;;3.15;0.70;;;16.70;99.90;;;;;;5134078;27;20099;-70
2023/08/31 11:56:42;;;;;;;2.40;0.80;;;16.60;99.90;;;;;;5133237;27;20392;-70
2023/08/31 11:59:10;;;;;;;1.67;0.80;;;16.50;99.90;;;;;;5134225;27;20440;-71
2023/08/31 12:01:39;;;;;;;2.95;0.60;;;16.50;99.90;;;;;;5114223;27;20047;-72
2023/08/31 12:04:10;;;;;;;1.60;0.50;;;16.50;99.90;;;;;;5134097;27;20187;-71
2023/08/31 12:06:36;;;;;;;2.17;0.60;;;16.60;99.90;;;;;;5133444;27;20047;-72
2023/08/31 12:09:04;;;;;;;2.03;0.65;;;16.60;99.90;;;;;;5133693;27;20462;-72
2023/08/31 12:11:30;;;;;;;1.55;0.80;;;16.80;99.90;;;;;;5133261;27;20046;-71
2023/08/31 12:14:00;;;;;;;2.03;0.60;;;17.20;99.90;;;;;;5132718;27;20051;-72
2023/08/31 12:16:36;;;;;;;1.20;0.60;;;17.50;99.90;;;;;;5132824;27;20043;-71
2023/08/31 12:19:04;;;;;;;1.83;0.80;;;17.60;99.90;;;;;;5114853;27;20055;-72
2023/08/31 12:21:33;;;;;;;3.10;1.75;;;17.70;99.90;;;;;;5133425;27;20122;-72
2023/08/31 12:23:59;;;;;;;1.35;0.47;;;17.70;99.90;;;;;;5133406;27;20039;-70
2023/08/31 12:26:26;;;;;;;2.13;1.15;;;17.70;99.90;;;;;;5132759;27;20082;-71
2023/08/31 12:28:52;;;;;;;2.05;0.55;;;17.60;99.90;;;;;;5133466;27;20038;-71
2023/08/31 12:31:18;;;;;;;2.33;0.60;;;17.40;99.90;;;;;;5133410;27;20039;-71
2023/08/31 12:33:43;;;;;;;2.38;0.65;;;17.50;99.90;;;;;;5132794;27;20131;-71
2023/08/31 12:36:09;;;;;;;1.05;0.50;;;17.50;99.90;;;;;;5132766;27;20130;-71
2023/08/31 12:38:35;;;;;;;1.20;0.45;;;17.50;99.90;;;;;;5132965;27;20055;-71
2023/08/31 12:41:02;;;;;;;0.82;0.40;;;17.50;99.90;;;;;;5132520;27;20043;-71
2023/08/31 12:43:28;;;;;;;2.05;0.60;;;17.60;99.90;;;;;;5133818;27;20059;-71
2023/08/31 12:45:57;;;;;;;1.58;0.57;;;17.70;99.90;;;;;;5142464;27;20472;-71
2023/08/31 12:48:23;;;;;;;0.60;0.40;;;17.60;99.90;;;;;;5131893;27;20039;-71